createdAt,value
2019-03-03T00:00:22.122Z,4.60
2019-03-03T00:02:50.729Z,4.90
2019-03-03T00:05:19.315Z,5.00
2019-03-03T00:07:47.858Z,5.20
2019-03-03T00:10:16.442Z,5.30
2019-03-03T00:12:44.884Z,5.40
2019-03-03T00:15:14.066Z,5.40
2019-03-03T00:17:42.512Z,5.40
2019-03-03T00:20:15.455Z,5.30
2019-03-03T00:22:43.984Z,5.40
2019-03-03T00:25:14.152Z,5.30
2019-03-03T00:27:42.700Z,5.20
2019-03-03T00:30:15.562Z,5.20
2019-03-03T00:32:44.171Z,5.10
2019-03-03T00:35:12.686Z,5.00
2019-03-03T00:37:45.731Z,5.00
2019-03-03T00:40:21.971Z,5.00
2019-03-03T00:43:09.170Z,5.10
2019-03-03T00:45:51.605Z,5.20
2019-03-03T00:48:21.768Z,5.10
2019-03-03T00:50:51.881Z,5.20
2019-03-03T00:53:22.042Z,5.20
2019-03-03T00:55:52.159Z,5.10
2019-03-03T00:58:22.391Z,5.20
2019-03-03T01:00:55.769Z,5.20
2019-03-03T01:03:25.930Z,5.20
2019-03-03T01:06:02.130Z,5.20
2019-03-03T01:08:32.231Z,5.30
2019-03-03T01:11:05.327Z,5.30
2019-03-03T01:13:47.803Z,5.30
2019-03-03T01:16:34.163Z,5.40
2019-03-03T01:19:04.348Z,5.50
2019-03-03T01:21:40.272Z,5.50
2019-03-03T01:24:13.346Z,5.40
2019-03-03T01:26:41.942Z,5.40
2019-03-03T01:29:10.475Z,5.30
2019-03-03T01:31:39.014Z,5.20
2019-03-03T01:34:07.543Z,5.20
2019-03-03T01:36:36.149Z,5.00
2019-03-03T01:39:05.906Z,5.00
2019-03-03T01:41:34.446Z,5.00
2019-03-03T01:44:03.036Z,4.80
2019-03-03T01:46:31.578Z,4.80
2019-03-03T01:49:00.103Z,4.90
2019-03-03T01:51:28.642Z,4.90
2019-03-03T01:53:57.168Z,5.00
2019-03-03T01:56:28.414Z,5.20
2019-03-03T01:58:56.859Z,5.40
2019-03-03T02:01:25.610Z,5.60
2019-03-03T02:03:54.067Z,5.70
2019-03-03T02:06:22.650Z,5.70
2019-03-03T02:08:51.118Z,5.80
2019-03-03T02:11:19.818Z,5.90
2019-03-03T02:13:48.430Z,6.00
2019-03-03T02:16:17.119Z,6.00
2019-03-03T02:18:45.659Z,6.10
2019-03-03T02:21:14.184Z,6.10
2019-03-03T02:23:42.723Z,6.10
2019-03-03T02:26:11.251Z,6.20
2019-03-03T02:28:39.871Z,6.20
2019-03-03T02:31:08.536Z,6.20
2019-03-03T02:33:37.083Z,6.20
2019-03-03T02:36:05.747Z,6.10
2019-03-03T02:38:34.303Z,6.10
2019-03-03T02:41:02.828Z,6.10
2019-03-03T02:43:34.438Z,6.20
2019-03-03T02:46:02.888Z,6.20
2019-03-03T02:48:31.431Z,6.10
2019-03-03T02:50:59.973Z,6.00
2019-03-03T02:53:28.514Z,6.00
2019-03-03T02:55:57.040Z,5.90
2019-03-03T02:58:25.590Z,5.90
2019-03-03T03:00:55.766Z,5.90
2019-03-03T03:03:25.474Z,5.90
2019-03-03T03:06:11.875Z,5.90
2019-03-03T03:08:44.743Z,5.90
2019-03-03T03:11:15.070Z,6.00
2019-03-03T03:13:45.280Z,6.00
2019-03-03T03:16:18.310Z,5.90
2019-03-03T03:18:48.431Z,6.00
2019-03-03T03:21:24.517Z,6.00
2019-03-03T03:24:11.019Z,6.00
2019-03-03T03:26:44.032Z,6.00
2019-03-03T03:29:20.083Z,5.80
2019-03-03T03:31:50.331Z,5.80
2019-03-03T03:34:20.520Z,5.80
2019-03-03T03:37:05.824Z,5.90
2019-03-03T03:39:44.930Z,6.00
2019-03-03T03:42:18.003Z,6.00
2019-03-03T03:45:04.519Z,6.00
2019-03-03T03:47:53.156Z,6.00
2019-03-03T03:50:23.418Z,6.00
2019-03-03T03:53:02.790Z,6.00
2019-03-03T03:55:35.863Z,6.00
2019-03-03T03:58:06.486Z,5.90
2019-03-03T04:00:36.735Z,5.90
2019-03-03T04:03:22.372Z,5.90
2019-03-03T04:05:55.391Z,5.80
2019-03-03T04:08:25.699Z,5.80
2019-03-03T04:11:12.489Z,5.70
2019-03-03T04:13:59.111Z,5.70
2019-03-03T04:16:29.312Z,5.60
2019-03-03T04:19:05.664Z,5.60
2019-03-03T04:21:41.618Z,5.60
2019-03-03T04:24:27.087Z,5.40
2019-03-03T04:26:57.280Z,5.30
2019-03-03T04:29:30.561Z,5.30
2019-03-03T04:32:09.608Z,5.40
2019-03-03T04:34:49.098Z,5.40
2019-03-03T04:37:19.203Z,5.40
2019-03-03T04:40:04.708Z,5.40
2019-03-03T04:42:46.919Z,5.20
2019-03-03T04:45:17.006Z,5.10
2019-03-03T04:47:47.115Z,5.00
2019-03-03T04:50:17.283Z,5.10
2019-03-03T04:52:47.455Z,5.00
2019-03-03T04:55:29.494Z,5.00
2019-03-03T04:58:02.675Z,5.00
2019-03-03T05:00:38.886Z,5.00
2019-03-03T05:03:25.184Z,5.20
2019-03-03T05:05:58.247Z,5.30
2019-03-03T05:08:28.411Z,5.40
2019-03-03T05:11:07.504Z,5.50
2019-03-03T05:13:37.666Z,5.60
2019-03-03T05:16:23.771Z,5.60
2019-03-03T05:18:53.886Z,5.60
2019-03-03T05:21:22.343Z,5.70
2019-03-03T05:23:50.864Z,5.80
2019-03-03T05:26:19.406Z,5.80
2019-03-03T05:28:47.863Z,5.80
2019-03-03T05:31:16.397Z,5.80
2019-03-03T05:33:44.850Z,5.70
2019-03-03T05:36:13.323Z,5.70
2019-03-03T05:38:41.842Z,5.70
2019-03-03T05:41:10.387Z,5.60
2019-03-03T05:43:38.913Z,5.60
2019-03-03T05:46:07.455Z,5.50
2019-03-03T05:48:35.979Z,5.40
2019-03-03T05:51:04.446Z,5.20
2019-03-03T05:53:32.959Z,5.10
2019-03-03T05:56:01.503Z,5.10
2019-03-03T05:58:29.950Z,5.00
2019-03-03T06:00:58.492Z,4.90
2019-03-03T06:03:27.015Z,4.80
2019-03-03T06:05:55.550Z,4.50
2019-03-03T06:08:24.034Z,4.20
2019-03-03T06:10:52.622Z,4.00
2019-03-03T06:13:21.063Z,3.90
2019-03-03T06:15:49.514Z,3.80
2019-03-03T06:18:18.046Z,3.80
2019-03-03T06:20:46.493Z,3.70
2019-03-03T06:23:15.039Z,3.60
2019-03-03T06:25:43.557Z,3.60
2019-03-03T06:28:12.108Z,3.80
2019-03-03T06:30:40.690Z,4.20
2019-03-03T06:33:09.298Z,4.40
2019-03-03T06:35:37.752Z,4.60
2019-03-03T06:38:06.294Z,4.80
2019-03-03T06:40:34.811Z,5.10
2019-03-03T06:43:03.289Z,5.30
2019-03-03T06:45:31.802Z,5.40
2019-03-03T06:48:00.284Z,5.70
2019-03-03T06:50:28.801Z,6.10
2019-03-03T06:52:57.343Z,6.60
2019-03-03T06:55:25.802Z,7.10
2019-03-03T06:57:54.410Z,7.50
2019-03-03T07:00:23.630Z,7.80
2019-03-03T07:02:52.183Z,8.00
2019-03-03T07:05:20.847Z,8.30
2019-03-03T07:07:49.307Z,8.60
2019-03-03T07:10:17.846Z,8.90
2019-03-03T07:12:46.362Z,9.00
2019-03-03T07:15:16.647Z,9.20
2019-03-03T07:17:45.239Z,9.40
2019-03-03T07:20:14.050Z,9.70
2019-03-03T07:22:42.641Z,9.80
2019-03-03T07:25:12.918Z,9.80
2019-03-03T07:27:41.536Z,9.60
2019-03-03T07:30:12.447Z,9.30
2019-03-03T07:32:42.675Z,9.10
2019-03-03T07:35:11.138Z,9.10
2019-03-03T07:37:39.734Z,9.30
2019-03-03T07:40:08.717Z,9.40
2019-03-03T07:42:37.235Z,9.40
2019-03-03T07:45:11.622Z,9.40
2019-03-03T07:47:40.074Z,9.20
2019-03-03T07:50:08.915Z,9.20
2019-03-03T07:52:37.503Z,9.20
2019-03-03T07:55:08.729Z,9.40
2019-03-03T07:57:37.383Z,9.60
2019-03-03T08:00:16.107Z,9.90
2019-03-03T08:02:44.765Z,10.40
2019-03-03T08:05:13.565Z,10.90
2019-03-03T08:07:42.187Z,11.20
2019-03-03T08:10:12.450Z,11.40
2019-03-03T08:12:41.004Z,11.40
2019-03-03T08:15:12.343Z,11.60
2019-03-03T08:17:40.967Z,11.80
2019-03-03T08:20:11.331Z,12.10
2019-03-03T08:22:39.943Z,12.10
2019-03-03T08:25:13.179Z,12.20
2019-03-03T08:27:41.872Z,12.50
2019-03-03T08:30:14.979Z,12.80
2019-03-03T08:32:43.517Z,12.90
2019-03-03T08:35:22.921Z,13.00
2019-03-03T08:37:51.538Z,12.90
2019-03-03T08:40:20.136Z,12.80
2019-03-03T08:42:50.310Z,12.70
2019-03-03T08:45:26.468Z,12.70
2019-03-03T08:47:56.642Z,12.90
2019-03-03T08:50:29.495Z,12.90
2019-03-03T08:53:15.707Z,12.90
2019-03-03T08:55:51.850Z,13.00
2019-03-03T08:58:38.236Z,13.10
2019-03-03T09:01:08.418Z,13.30
2019-03-03T09:03:38.511Z,13.50
2019-03-03T09:06:08.775Z,13.40
2019-03-03T09:08:38.938Z,13.30
2019-03-03T09:11:09.055Z,13.40
2019-03-03T09:13:42.275Z,13.60
2019-03-03T09:16:12.467Z,13.70
2019-03-03T09:19:20.492Z,13.90
2019-03-03T09:21:56.916Z,13.90
2019-03-03T09:24:29.791Z,14.10
2019-03-03T09:27:02.459Z,14.10
2019-03-03T09:29:32.560Z,14.20
2019-03-03T09:32:19.048Z,14.30
2019-03-03T09:34:51.980Z,14.50
2019-03-03T09:37:22.147Z,14.60
2019-03-03T09:39:58.442Z,14.70
2019-03-03T09:42:40.494Z,14.50
2019-03-03T09:45:27.682Z,14.60
2019-03-03T09:47:57.855Z,14.50
2019-03-03T09:50:33.740Z,14.50
2019-03-03T09:53:12.732Z,14.50
2019-03-03T09:55:59.299Z,14.40
2019-03-03T09:58:38.487Z,14.40
2019-03-03T10:01:08.755Z,14.50
2019-03-03T10:03:42.190Z,14.60
2019-03-03T10:06:12.578Z,14.60
2019-03-03T10:09:00.879Z,14.60
2019-03-03T10:11:31.135Z,14.60
2019-03-03T10:14:04.316Z,14.80
2019-03-03T10:16:37.444Z,14.90
2019-03-03T10:19:10.066Z,15.00
2019-03-03T10:21:45.960Z,14.90
2019-03-03T10:24:25.397Z,14.90
2019-03-03T10:27:12.070Z,14.40
2019-03-03T10:29:45.216Z,14.10
2019-03-03T10:32:24.598Z,14.20
2019-03-03T10:34:57.448Z,14.50
2019-03-03T10:37:30.491Z,14.90
2019-03-03T10:40:03.198Z,15.10
2019-03-03T10:42:33.368Z,15.10
2019-03-03T10:45:06.610Z,15.10
2019-03-03T10:47:36.851Z,15.20
2019-03-03T10:50:27.910Z,15.30
2019-03-03T10:53:04.494Z,15.40
2019-03-03T10:55:43.520Z,15.70
2019-03-03T10:58:16.748Z,15.90
2019-03-03T11:01:05.375Z,15.80
2019-03-03T11:03:35.479Z,15.80
2019-03-03T11:06:22.015Z,15.80
2019-03-03T11:08:58.080Z,15.80
2019-03-03T11:11:28.335Z,15.80
2019-03-03T11:14:04.100Z,16.10
2019-03-03T11:16:37.271Z,16.20
2019-03-03T11:19:10.335Z,16.20
2019-03-03T11:21:46.735Z,15.90
2019-03-03T11:24:23.030Z,15.60
2019-03-03T11:26:53.156Z,15.60
2019-03-03T11:29:32.547Z,15.70
2019-03-03T11:32:05.555Z,15.80
2019-03-03T11:34:41.216Z,15.50
2019-03-03T11:37:23.466Z,15.40
2019-03-03T11:40:12.091Z,15.40
2019-03-03T11:42:42.280Z,15.30
2019-03-03T11:45:29.228Z,15.30
2019-03-03T11:48:08.054Z,15.20
2019-03-03T11:50:38.163Z,14.80
2019-03-03T11:53:08.347Z,14.70
2019-03-03T11:55:54.770Z,14.70
2019-03-03T11:58:41.587Z,14.70
2019-03-03T12:01:11.890Z,14.80
2019-03-03T12:04:00.312Z,15.00
2019-03-03T12:06:33.024Z,15.10
2019-03-03T12:09:19.625Z,15.40
2019-03-03T12:11:49.798Z,15.50
2019-03-03T12:14:29.066Z,15.50
2019-03-03T12:17:07.966Z,15.40
2019-03-03T12:19:54.445Z,15.50
2019-03-03T12:22:42.915Z,15.80
2019-03-03T12:25:21.689Z,16.00
2019-03-03T12:28:07.039Z,16.40
2019-03-03T12:30:37.300Z,16.40
2019-03-03T12:33:10.516Z,16.30
2019-03-03T12:35:43.447Z,16.10
2019-03-03T12:38:30.234Z,16.00
2019-03-03T12:41:16.698Z,16.00
2019-03-03T12:43:55.738Z,16.00
2019-03-03T12:46:28.971Z,15.90
2019-03-03T12:48:59.134Z,15.90
2019-03-03T12:51:47.851Z,15.90
2019-03-03T12:54:26.925Z,16.10
2019-03-03T12:57:03.159Z,16.40
2019-03-03T12:59:33.334Z,16.70
2019-03-03T13:02:20.067Z,16.60
2019-03-03T13:04:59.206Z,16.70
2019-03-03T13:07:29.477Z,16.70
2019-03-03T13:10:02.593Z,16.90
2019-03-03T13:12:32.786Z,17.10
2019-03-03T13:15:02.979Z,17.10
2019-03-03T13:17:36.318Z,17.20
2019-03-03T13:20:15.015Z,17.30
2019-03-03T13:23:00.278Z,17.50
2019-03-03T13:25:30.535Z,17.50
2019-03-03T13:28:06.224Z,17.50
2019-03-03T13:30:36.414Z,17.50
2019-03-03T13:33:09.627Z,17.50
2019-03-03T13:35:39.799Z,17.60
2019-03-03T13:38:09.993Z,17.70
2019-03-03T13:40:42.927Z,17.50
2019-03-03T13:43:11.535Z,17.40
2019-03-03T13:45:40.198Z,17.20
2019-03-03T13:48:08.835Z,16.90
2019-03-03T13:50:37.486Z,16.90
2019-03-03T13:53:06.254Z,16.80
2019-03-03T13:55:34.813Z,16.80
2019-03-03T13:58:03.398Z,16.80
2019-03-03T14:00:32.226Z,16.80
2019-03-03T14:03:00.817Z,16.70
2019-03-03T14:05:29.687Z,16.60
2019-03-03T14:07:58.380Z,16.50
2019-03-03T14:10:26.900Z,16.40
2019-03-03T14:12:55.525Z,16.30
2019-03-03T14:15:24.120Z,16.20
2019-03-03T14:17:52.714Z,16.10
2019-03-03T14:20:23.111Z,16.10
2019-03-03T14:22:52.667Z,16.10
2019-03-03T14:25:21.453Z,16.00
2019-03-03T14:27:50.117Z,15.90
2019-03-03T14:30:26.688Z,15.90
2019-03-03T14:32:55.421Z,15.90
2019-03-03T14:35:23.947Z,15.80
2019-03-03T14:37:52.632Z,15.80
2019-03-03T14:40:22.421Z,15.80
2019-03-03T14:42:51.139Z,15.80
2019-03-03T14:45:20.113Z,15.80
2019-03-03T14:47:48.907Z,15.80
2019-03-03T14:50:22.195Z,15.80
2019-03-03T14:52:52.889Z,15.90
2019-03-03T14:55:21.570Z,15.80
2019-03-03T14:57:50.091Z,15.70
2019-03-03T15:00:25.444Z,15.50
2019-03-03T15:02:54.409Z,15.50
2019-03-03T15:05:24.079Z,15.40
2019-03-03T15:07:52.706Z,15.30
2019-03-03T15:10:21.366Z,15.20
2019-03-03T15:12:49.936Z,15.10
2019-03-03T15:15:26.011Z,15.00
2019-03-03T15:17:54.631Z,14.90
2019-03-03T15:20:23.491Z,14.90
2019-03-03T15:22:52.159Z,14.90
2019-03-03T15:25:20.780Z,14.90
2019-03-03T15:27:49.547Z,14.80
2019-03-03T15:30:23.114Z,14.80
2019-03-03T15:32:51.737Z,14.70
2019-03-03T15:35:20.393Z,14.60
2019-03-03T15:37:49.051Z,14.50
2019-03-03T15:40:23.646Z,14.50
2019-03-03T15:42:52.512Z,14.50
2019-03-03T15:45:23.412Z,14.50
2019-03-03T15:47:52.105Z,14.50
2019-03-03T15:50:21.673Z,14.50
2019-03-03T15:52:50.458Z,14.40
2019-03-03T15:55:24.277Z,14.40
2019-03-03T15:57:52.876Z,14.40
2019-03-03T16:00:27.189Z,14.40
2019-03-03T16:02:55.779Z,14.20
2019-03-03T16:05:24.331Z,14.10
2019-03-03T16:07:52.919Z,14.00
2019-03-03T16:10:26.529Z,13.90
2019-03-03T16:12:55.212Z,13.70
2019-03-03T16:15:23.813Z,13.70
2019-03-03T16:17:52.417Z,13.50
2019-03-03T16:20:24.984Z,13.50
2019-03-03T16:22:53.576Z,13.40
2019-03-03T16:25:23.387Z,13.40
2019-03-03T16:27:52.054Z,13.40
2019-03-03T16:30:24.341Z,13.40
2019-03-03T16:32:52.947Z,13.40
2019-03-03T16:35:21.544Z,13.20
2019-03-03T16:37:50.090Z,13.20
2019-03-03T16:40:23.946Z,13.10
2019-03-03T16:42:52.836Z,13.00
2019-03-03T16:45:21.810Z,12.90
2019-03-03T16:47:50.676Z,12.90
2019-03-03T16:50:20.460Z,12.70
2019-03-03T16:52:49.124Z,12.60
2019-03-03T16:55:19.172Z,12.50
2019-03-03T16:57:47.773Z,12.50
2019-03-03T17:00:26.158Z,12.50
2019-03-03T17:02:54.751Z,12.50
2019-03-03T17:05:27.742Z,12.50
2019-03-03T17:07:56.209Z,12.50
2019-03-03T17:10:25.697Z,12.40
2019-03-03T17:12:54.248Z,12.40
2019-03-03T17:15:25.286Z,12.20
2019-03-03T17:17:53.980Z,12.00
2019-03-03T17:20:22.451Z,11.90
2019-03-03T17:22:51.047Z,11.80
2019-03-03T17:25:27.759Z,11.70
2019-03-03T17:27:56.419Z,11.80
2019-03-03T17:30:27.048Z,11.70
2019-03-03T17:32:55.944Z,11.70
2019-03-03T17:35:24.531Z,11.80
2019-03-03T17:37:53.216Z,11.80
2019-03-03T17:40:23.288Z,11.70
2019-03-03T17:42:52.098Z,11.60
2019-03-03T17:45:21.791Z,11.50
2019-03-03T17:47:50.784Z,11.40
2019-03-03T17:50:21.351Z,11.30
2019-03-03T17:52:49.835Z,11.10
2019-03-03T17:55:18.494Z,10.90
2019-03-03T17:57:47.116Z,10.90
2019-03-03T18:00:30.031Z,11.00
2019-03-03T18:02:58.508Z,11.10
2019-03-03T18:05:27.037Z,11.10
2019-03-03T18:07:55.603Z,11.10
2019-03-03T18:10:24.218Z,11.00
2019-03-03T18:12:52.821Z,11.00
2019-03-03T18:15:22.003Z,10.80
2019-03-03T18:17:50.768Z,10.80
2019-03-03T18:20:21.318Z,10.80
2019-03-03T18:22:50.085Z,10.80
2019-03-03T18:25:19.983Z,10.80
2019-03-03T18:27:48.502Z,10.70
2019-03-03T18:30:28.020Z,10.80
2019-03-03T18:32:56.543Z,10.60
2019-03-03T18:35:25.432Z,10.50
2019-03-03T18:37:54.102Z,10.50
2019-03-03T18:40:24.259Z,10.50
2019-03-03T18:42:52.926Z,10.40
2019-03-03T18:45:22.723Z,10.40
2019-03-03T18:47:51.491Z,10.40
2019-03-03T18:50:24.507Z,10.20
2019-03-03T18:52:53.038Z,10.00
2019-03-03T18:55:21.647Z,9.70
2019-03-03T18:57:50.239Z,9.40
2019-03-03T19:00:26.398Z,9.30
2019-03-03T19:02:55.064Z,9.10
2019-03-03T19:05:23.702Z,9.00
2019-03-03T19:07:52.359Z,9.00
2019-03-03T19:10:28.916Z,8.80
2019-03-03T19:12:57.498Z,8.60
2019-03-03T19:15:26.173Z,8.40
2019-03-03T19:17:54.768Z,8.30
2019-03-03T19:20:23.376Z,8.30
2019-03-03T19:22:52.043Z,8.50
2019-03-03T19:25:21.034Z,8.50
2019-03-03T19:27:49.626Z,8.50
2019-03-03T19:30:23.170Z,8.40
2019-03-03T19:32:57.710Z,8.40
2019-03-03T19:35:26.327Z,8.30
2019-03-03T19:37:54.933Z,8.30
2019-03-03T19:40:24.410Z,8.30
2019-03-03T19:42:53.913Z,8.30
2019-03-03T19:45:37.179Z,8.20
2019-03-03T19:48:07.097Z,8.30
2019-03-03T19:50:35.847Z,8.20
2019-03-03T19:53:05.146Z,8.00
2019-03-03T19:55:33.758Z,7.80
2019-03-03T19:58:02.651Z,7.80
2019-03-03T20:00:39.731Z,7.80
2019-03-03T20:03:08.483Z,7.40
2019-03-03T20:05:37.023Z,7.20
2019-03-03T20:08:06.310Z,7.30
2019-03-03T20:10:35.487Z,7.10
2019-03-03T20:13:04.374Z,7.00
2019-03-03T20:15:33.223Z,6.80
2019-03-03T20:18:02.826Z,6.90
2019-03-03T20:20:31.427Z,6.90
2019-03-03T20:23:00.125Z,6.80
2019-03-03T20:25:28.715Z,6.60
2019-03-03T20:27:57.234Z,6.50
2019-03-03T20:30:26.262Z,6.50
2019-03-03T20:32:54.839Z,6.60
2019-03-03T20:35:23.487Z,6.50
2019-03-03T20:37:52.047Z,6.40
2019-03-03T20:40:22.159Z,6.40
2019-03-03T20:42:51.423Z,6.60
2019-03-03T20:45:25.047Z,6.80
2019-03-03T20:47:53.743Z,6.90
2019-03-03T20:50:22.526Z,7.00
2019-03-03T20:52:51.523Z,6.90
2019-03-03T20:55:24.722Z,6.60
2019-03-03T20:57:53.391Z,6.80
2019-03-03T21:00:25.405Z,6.60
2019-03-03T21:02:54.051Z,6.50
2019-03-03T21:05:22.768Z,6.50
2019-03-03T21:07:52.191Z,6.40
2019-03-03T21:10:26.566Z,6.30
2019-03-03T21:12:55.119Z,6.20
2019-03-03T21:15:23.947Z,6.30
2019-03-03T21:17:52.571Z,6.30
2019-03-03T21:20:24.486Z,6.40
2019-03-03T21:22:53.106Z,6.60
2019-03-03T21:25:21.910Z,6.80
2019-03-03T21:27:50.572Z,6.90
2019-03-03T21:30:27.323Z,7.00
2019-03-03T21:32:55.946Z,7.10
2019-03-03T21:35:24.702Z,7.20
2019-03-03T21:37:53.297Z,7.10
2019-03-03T21:40:28.895Z,7.00
2019-03-03T21:42:57.419Z,6.90
2019-03-03T21:45:30.201Z,6.90
2019-03-03T21:47:58.874Z,6.90
2019-03-03T21:50:31.590Z,6.90
2019-03-03T21:53:00.123Z,7.00
2019-03-03T21:55:28.807Z,7.00
2019-03-03T21:57:57.334Z,7.10
2019-03-03T22:00:37.773Z,7.20
2019-03-03T22:03:06.661Z,7.10
2019-03-03T22:05:35.308Z,7.10
2019-03-03T22:08:04.296Z,7.10
2019-03-03T22:10:33.471Z,7.10
2019-03-03T22:13:09.757Z,7.10
2019-03-03T22:15:38.373Z,7.30
2019-03-03T22:18:07.067Z,7.20
2019-03-03T22:20:35.646Z,7.20
2019-03-03T22:23:04.201Z,7.20
2019-03-03T22:25:32.792Z,7.10
2019-03-03T22:28:01.400Z,6.80
2019-03-03T22:30:30.010Z,6.60
2019-03-03T22:32:58.627Z,6.40
2019-03-03T22:35:27.243Z,6.20
2019-03-03T22:37:55.754Z,6.20
2019-03-03T22:40:25.142Z,6.10
2019-03-03T22:42:53.659Z,6.00
2019-03-03T22:45:22.975Z,5.90
2019-03-03T22:47:51.631Z,5.90
2019-03-03T22:50:22.914Z,5.90
2019-03-03T22:52:51.515Z,5.80
2019-03-03T22:55:20.975Z,5.70
2019-03-03T22:57:49.756Z,5.90
2019-03-03T23:00:44.329Z,5.90
2019-03-03T23:03:15.807Z,5.80
2019-03-03T23:06:02.720Z,5.80
2019-03-03T23:08:45.563Z,5.90
2019-03-03T23:11:20.285Z,5.80
2019-03-03T23:13:54.623Z,5.60
2019-03-03T23:16:45.895Z,5.60
2019-03-03T23:19:47.970Z,5.70
2019-03-03T23:22:34.419Z,5.60
2019-03-03T23:25:08.583Z,5.60
2019-03-03T23:27:37.123Z,5.50
2019-03-03T23:30:08.192Z,5.60
2019-03-03T23:32:36.734Z,5.70
2019-03-03T23:35:06.147Z,5.70
2019-03-03T23:37:34.673Z,5.80
2019-03-03T23:40:03.210Z,5.80
2019-03-03T23:42:31.807Z,5.80
2019-03-03T23:45:00.323Z,5.90
2019-03-03T23:47:28.790Z,5.90
2019-03-03T23:49:57.315Z,6.00
2019-03-03T23:52:25.783Z,6.10
2019-03-03T23:54:54.311Z,6.10
2019-03-03T23:57:23.534Z,6.10
2019-03-03T23:59:52.178Z,6.00
